sensor_id;sensor_type;location;lat;lon;timestamp;temperature;humidity
46676;DHT22;32412;51.478;5.694;2023-02-24T00:01:18;3.60;99.90
46676;DHT22;32412;51.478;5.694;2023-02-24T00:03:54;3.50;99.90
46676;DHT22;32412;51.478;5.694;2023-02-24T00:06:26;3.40;99.90
46676;DHT22;32412;51.478;5.694;2023-02-24T00:09:01;3.30;99.90
46676;DHT22;32412;51.478;5.694;2023-02-24T00:11:27;3.30;99.90
46676;DHT22;32412;51.478;5.694;2023-02-24T00:13:53;3.20;99.90
46676;DHT22;32412;51.478;5.694;2023-02-24T00:16:22;3.20;99.90
46676;DHT22;32412;51.478;5.694;2023-02-24T00:18:48;3.10;99.90
46676;DHT22;32412;51.478;5.694;2023-02-24T00:21:16;3.00;99.90
46676;DHT22;32412;51.478;5.694;2023-02-24T00:23:43;3.00;99.90
46676;DHT22;32412;51.478;5.694;2023-02-24T00:26:12;2.90;99.90
46676;DHT22;32412;51.478;5.694;2023-02-24T00:28:38;2.90;99.90
46676;DHT22;32412;51.478;5.694;2023-02-24T00:31:06;2.80;99.90
46676;DHT22;32412;51.478;5.694;2023-02-24T00:33:33;2.80;99.90
46676;DHT22;32412;51.478;5.694;2023-02-24T00:36:06;2.80;99.90
46676;DHT22;32412;51.478;5.694;2023-02-24T00:38:32;2.70;99.90
46676;DHT22;32412;51.478;5.694;2023-02-24T00:41:21;2.80;99.90
46676;DHT22;32412;51.478;5.694;2023-02-24T00:43:48;2.90;99.90
46676;DHT22;32412;51.478;5.694;2023-02-24T00:46:15;2.90;99.90
46676;DHT22;32412;51.478;5.694;2023-02-24T00:48:43;3.00;99.90
46676;DHT22;32412;51.478;5.694;2023-02-24T00:51:11;3.10;99.90
46676;DHT22;32412;51.478;5.694;2023-02-24T00:53:37;3.20;99.90
46676;DHT22;32412;51.478;5.694;2023-02-24T00:56:07;3.20;99.90
46676;DHT22;32412;51.478;5.694;2023-02-24T00:58:39;3.40;99.90
46676;DHT22;32412;51.478;5.694;2023-02-24T01:01:20;3.60;99.90
46676;DHT22;32412;51.478;5.694;2023-02-24T01:03:46;3.50;99.90
46676;DHT22;32412;51.478;5.694;2023-02-24T01:06:19;3.50;99.90
46676;DHT22;32412;51.478;5.694;2023-02-24T01:08:49;3.50;99.90
46676;DHT22;32412;51.478;5.694;2023-02-24T01:11:18;3.60;99.90
46676;DHT22;32412;51.478;5.694;2023-02-24T01:14:08;3.70;99.90
46676;DHT22;32412;51.478;5.694;2023-02-24T01:16:35;3.70;99.90
46676;DHT22;32412;51.478;5.694;2023-02-24T01:19:02;3.80;99.90
46676;DHT22;32412;51.478;5.694;2023-02-24T01:21:29;3.80;99.90
46676;DHT22;32412;51.478;5.694;2023-02-24T01:23:56;3.90;99.90
46676;DHT22;32412;51.478;5.694;2023-02-24T01:26:22;3.90;99.90
46676;DHT22;32412;51.478;5.694;2023-02-24T01:28:50;4.00;99.90
46676;DHT22;32412;51.478;5.694;2023-02-24T01:31:16;3.90;99.90
46676;DHT22;32412;51.478;5.694;2023-02-24T01:33:43;4.00;99.90
46676;DHT22;32412;51.478;5.694;2023-02-24T01:36:16;4.00;99.90
46676;DHT22;32412;51.478;5.694;2023-02-24T01:38:42;4.00;99.90
46676;DHT22;32412;51.478;5.694;2023-02-24T01:41:15;4.00;99.90
46676;DHT22;32412;51.478;5.694;2023-02-24T01:44:01;4.00;99.90
46676;DHT22;32412;51.478;5.694;2023-02-24T01:46:29;4.10;99.90
46676;DHT22;32412;51.478;5.694;2023-02-24T01:49:01;4.00;99.90
46676;DHT22;32412;51.478;5.694;2023-02-24T01:51:31;4.10;99.90
46676;DHT22;32412;51.478;5.694;2023-02-24T01:53:59;4.10;99.90
46676;DHT22;32412;51.478;5.694;2023-02-24T01:56:27;4.10;99.90
46676;DHT22;32412;51.478;5.694;2023-02-24T01:58:55;4.10;99.90
46676;DHT22;32412;51.478;5.694;2023-02-24T02:01:23;4.10;99.90
46676;DHT22;32412;51.478;5.694;2023-02-24T02:03:48;4.10;99.90
46676;DHT22;32412;51.478;5.694;2023-02-24T02:06:15;4.10;99.90
46676;DHT22;32412;51.478;5.694;2023-02-24T02:08:44;4.10;99.90
46676;DHT22;32412;51.478;5.694;2023-02-24T02:11:14;4.10;99.90
46676;DHT22;32412;51.478;5.694;2023-02-24T02:13:45;4.10;99.90
46676;DHT22;32412;51.478;5.694;2023-02-24T02:36:31;3.90;99.90
46676;DHT22;32412;51.478;5.694;2023-02-24T02:42:06;4.10;99.90
46676;DHT22;32412;51.478;5.694;2023-02-24T02:47:41;4.20;99.90
46676;DHT22;32412;51.478;5.694;2023-02-24T02:50:28;4.20;99.90
46676;DHT22;32412;51.478;5.694;2023-02-24T02:53:12;4.20;99.90
46676;DHT22;32412;51.478;5.694;2023-02-24T02:55:45;4.20;99.90
46676;DHT22;32412;51.478;5.694;2023-02-24T02:58:22;4.20;99.90
46676;DHT22;32412;51.478;5.694;2023-02-24T03:00:54;4.10;99.90
46676;DHT22;32412;51.478;5.694;2023-02-24T03:06:17;4.20;99.90
46676;DHT22;32412;51.478;5.694;2023-02-24T03:08:52;4.20;99.90
46676;DHT22;32412;51.478;5.694;2023-02-24T03:11:20;4.20;99.90
46676;DHT22;32412;51.478;5.694;2023-02-24T03:13:49;4.30;99.90
46676;DHT22;32412;51.478;5.694;2023-02-24T03:16:17;4.40;99.90
46676;DHT22;32412;51.478;5.694;2023-02-24T03:18:48;4.30;99.90
46676;DHT22;32412;51.478;5.694;2023-02-24T03:21:38;4.30;99.90
46676;DHT22;32412;51.478;5.694;2023-02-24T03:24:05;4.30;99.90
46676;DHT22;32412;51.478;5.694;2023-02-24T03:32:08;4.30;99.90
46676;DHT22;32412;51.478;5.694;2023-02-24T03:34:55;4.30;99.90
46676;DHT22;32412;51.478;5.694;2023-02-24T03:37:23;4.30;99.90
46676;DHT22;32412;51.478;5.694;2023-02-24T03:39:57;4.30;99.90
46676;DHT22;32412;51.478;5.694;2023-02-24T03:42:27;4.30;99.90
46676;DHT22;32412;51.478;5.694;2023-02-24T03:44:55;4.30;99.90
46676;DHT22;32412;51.478;5.694;2023-02-24T03:47:23;4.30;99.90
46676;DHT22;32412;51.478;5.694;2023-02-24T03:49:49;4.30;99.90
46676;DHT22;32412;51.478;5.694;2023-02-24T03:52:45;4.40;99.90
46676;DHT22;32412;51.478;5.694;2023-02-24T04:01:09;4.40;99.90
46676;DHT22;32412;51.478;5.694;2023-02-24T04:03:56;4.30;99.90
46676;DHT22;32412;51.478;5.694;2023-02-24T04:06:44;4.30;99.90
46676;DHT22;32412;51.478;5.694;2023-02-24T04:14:46;4.20;99.90
46676;DHT22;32412;51.478;5.694;2023-02-24T04:17:21;4.30;99.90
46676;DHT22;32412;51.478;5.694;2023-02-24T04:19:50;4.30;99.90
46676;DHT22;32412;51.478;5.694;2023-02-24T04:22:19;4.20;99.90
46676;DHT22;32412;51.478;5.694;2023-02-24T04:24:51;4.20;99.90
46676;DHT22;32412;51.478;5.694;2023-02-24T04:27:18;4.30;99.90
46676;DHT22;32412;51.478;5.694;2023-02-24T04:29:52;4.10;99.90
46676;DHT22;32412;51.478;5.694;2023-02-24T04:32:21;4.00;99.90
46676;DHT22;32412;51.478;5.694;2023-02-24T04:34:48;4.00;99.90
46676;DHT22;32412;51.478;5.694;2023-02-24T04:37:14;3.90;99.90
46676;DHT22;32412;51.478;5.694;2023-02-24T04:39:40;3.90;99.90
46676;DHT22;32412;51.478;5.694;2023-02-24T04:42:05;3.90;99.90
46676;DHT22;32412;51.478;5.694;2023-02-24T04:44:31;3.90;99.90
46676;DHT22;32412;51.478;5.694;2023-02-24T04:46:57;3.90;99.90
46676;DHT22;32412;51.478;5.694;2023-02-24T04:49:24;3.90;99.90
46676;DHT22;32412;51.478;5.694;2023-02-24T04:51:50;3.90;99.90
46676;DHT22;32412;51.478;5.694;2023-02-24T04:54:18;3.90;99.90
46676;DHT22;32412;51.478;5.694;2023-02-24T04:56:48;4.00;99.90
46676;DHT22;32412;51.478;5.694;2023-02-24T04:59:16;4.00;99.90
46676;DHT22;32412;51.478;5.694;2023-02-24T05:01:42;4.00;99.90
46676;DHT22;32412;51.478;5.694;2023-02-24T05:04:10;4.00;99.90
46676;DHT22;32412;51.478;5.694;2023-02-24T05:06:36;3.90;99.90
46676;DHT22;32412;51.478;5.694;2023-02-24T05:09:09;4.00;99.90
46676;DHT22;32412;51.478;5.694;2023-02-24T05:11:46;4.00;99.90
46676;DHT22;32412;51.478;5.694;2023-02-24T05:14:14;4.00;99.90
46676;DHT22;32412;51.478;5.694;2023-02-24T05:16:41;4.00;99.90
46676;DHT22;32412;51.478;5.694;2023-02-24T05:19:10;4.10;99.90
46676;DHT22;32412;51.478;5.694;2023-02-24T05:21:55;4.10;99.90
46676;DHT22;32412;51.478;5.694;2023-02-24T05:24:25;4.10;99.90
46676;DHT22;32412;51.478;5.694;2023-02-24T05:26:52;4.10;99.90
46676;DHT22;32412;51.478;5.694;2023-02-24T05:29:27;4.10;99.90
46676;DHT22;32412;51.478;5.694;2023-02-24T05:31:57;4.10;99.90
46676;DHT22;32412;51.478;5.694;2023-02-24T05:34:28;4.10;99.90
46676;DHT22;32412;51.478;5.694;2023-02-24T05:36:58;4.20;99.90
46676;DHT22;32412;51.478;5.694;2023-02-24T05:39:26;4.10;99.90
46676;DHT22;32412;51.478;5.694;2023-02-24T05:41:53;4.20;99.90
46676;DHT22;32412;51.478;5.694;2023-02-24T05:44:22;4.20;99.90
46676;DHT22;32412;51.478;5.694;2023-02-24T05:46:50;4.20;99.90
46676;DHT22;32412;51.478;5.694;2023-02-24T05:49:21;4.20;99.90
46676;DHT22;32412;51.478;5.694;2023-02-24T05:51:52;4.20;99.90
46676;DHT22;32412;51.478;5.694;2023-02-24T05:54:41;4.20;99.90
46676;DHT22;32412;51.478;5.694;2023-02-24T05:57:12;4.10;99.90
46676;DHT22;32412;51.478;5.694;2023-02-24T05:59:42;4.10;99.90
46676;DHT22;32412;51.478;5.694;2023-02-24T06:02:14;4.20;99.90
46676;DHT22;32412;51.478;5.694;2023-02-24T06:04:42;4.10;99.90
46676;DHT22;32412;51.478;5.694;2023-02-24T06:07:26;4.00;99.90
46676;DHT22;32412;51.478;5.694;2023-02-24T06:09:56;4.00;99.90
46676;DHT22;32412;51.478;5.694;2023-02-24T06:12:25;4.00;99.90
46676;DHT22;32412;51.478;5.694;2023-02-24T06:14:52;4.00;99.90
46676;DHT22;32412;51.478;5.694;2023-02-24T06:17:18;3.90;99.90
46676;DHT22;32412;51.478;5.694;2023-02-24T06:19:45;3.80;99.90
46676;DHT22;32412;51.478;5.694;2023-02-24T06:22:13;3.80;99.90
46676;DHT22;32412;51.478;5.694;2023-02-24T06:24:39;3.80;99.90
46676;DHT22;32412;51.478;5.694;2023-02-24T06:27:12;3.80;99.90
46676;DHT22;32412;51.478;5.694;2023-02-24T06:29:47;3.80;99.90
46676;DHT22;32412;51.478;5.694;2023-02-24T06:32:21;3.80;99.90
46676;DHT22;32412;51.478;5.694;2023-02-24T06:34:48;3.90;99.90
46676;DHT22;32412;51.478;5.694;2023-02-24T06:37:16;3.90;99.90
46676;DHT22;32412;51.478;5.694;2023-02-24T06:39:42;3.90;99.90
46676;DHT22;32412;51.478;5.694;2023-02-24T06:42:10;4.00;99.90
46676;DHT22;32412;51.478;5.694;2023-02-24T06:44:37;4.00;99.90
46676;DHT22;32412;51.478;5.694;2023-02-24T06:47:04;3.90;99.90
46676;DHT22;32412;51.478;5.694;2023-02-24T06:49:31;3.90;99.90
46676;DHT22;32412;51.478;5.694;2023-02-24T06:51:57;3.90;99.90
46676;DHT22;32412;51.478;5.694;2023-02-24T06:54:25;3.90;99.90
46676;DHT22;32412;51.478;5.694;2023-02-24T06:56:53;3.80;99.90
46676;DHT22;32412;51.478;5.694;2023-02-24T06:59:19;3.80;99.90
46676;DHT22;32412;51.478;5.694;2023-02-24T07:01:56;3.80;99.90
46676;DHT22;32412;51.478;5.694;2023-02-24T07:04:22;3.90;99.90
46676;DHT22;32412;51.478;5.694;2023-02-24T07:06:51;3.90;99.90
46676;DHT22;32412;51.478;5.694;2023-02-24T07:09:24;3.90;99.90
46676;DHT22;32412;51.478;5.694;2023-02-24T07:11:52;3.90;99.90
46676;DHT22;32412;51.478;5.694;2023-02-24T07:14:23;3.90;99.90
46676;DHT22;32412;51.478;5.694;2023-02-24T07:16:49;3.80;99.90
46676;DHT22;32412;51.478;5.694;2023-02-24T07:19:21;3.90;99.90
46676;DHT22;32412;51.478;5.694;2023-02-24T07:21:47;3.90;99.90
46676;DHT22;32412;51.478;5.694;2023-02-24T07:24:25;3.90;99.90
46676;DHT22;32412;51.478;5.694;2023-02-24T07:26:59;3.90;99.90
46676;DHT22;32412;51.478;5.694;2023-02-24T07:29:26;4.00;99.90
46676;DHT22;32412;51.478;5.694;2023-02-24T07:31:52;4.00;99.90
46676;DHT22;32412;51.478;5.694;2023-02-24T07:34:23;3.90;99.90
46676;DHT22;32412;51.478;5.694;2023-02-24T07:36:51;4.00;99.90
46676;DHT22;32412;51.478;5.694;2023-02-24T07:39:17;4.00;99.90
46676;DHT22;32412;51.478;5.694;2023-02-24T07:41:44;4.10;99.90
46676;DHT22;32412;51.478;5.694;2023-02-24T07:44:14;4.10;99.90
46676;DHT22;32412;51.478;5.694;2023-02-24T07:46:40;4.20;99.90
46676;DHT22;32412;51.478;5.694;2023-02-24T07:49:15;4.30;99.90
46676;DHT22;32412;51.478;5.694;2023-02-24T07:51:42;4.20;99.90
46676;DHT22;32412;51.478;5.694;2023-02-24T07:54:10;4.30;99.90
46676;DHT22;32412;51.478;5.694;2023-02-24T07:56:36;4.30;99.90
46676;DHT22;32412;51.478;5.694;2023-02-24T07:59:11;4.40;99.90
46676;DHT22;32412;51.478;5.694;2023-02-24T08:01:41;4.40;99.90
46676;DHT22;32412;51.478;5.694;2023-02-24T08:04:15;4.40;99.90
46676;DHT22;32412;51.478;5.694;2023-02-24T08:06:42;4.50;99.90
46676;DHT22;32412;51.478;5.694;2023-02-24T08:09:19;4.50;99.90
46676;DHT22;32412;51.478;5.694;2023-02-24T08:11:55;4.60;99.90
46676;DHT22;32412;51.478;5.694;2023-02-24T08:14:27;4.60;99.90
46676;DHT22;32412;51.478;5.694;2023-02-24T08:16:57;4.60;99.90
46676;DHT22;32412;51.478;5.694;2023-02-24T08:19:28;4.70;99.90
46676;DHT22;32412;51.478;5.694;2023-02-24T08:22:12;4.70;99.90
46676;DHT22;32412;51.478;5.694;2023-02-24T08:24:54;4.80;99.90
46676;DHT22;32412;51.478;5.694;2023-02-24T08:27:22;4.80;99.90
46676;DHT22;32412;51.478;5.694;2023-02-24T08:29:51;4.80;99.90
46676;DHT22;32412;51.478;5.694;2023-02-24T08:32:40;4.90;99.90
46676;DHT22;32412;51.478;5.694;2023-02-24T08:35:18;4.90;99.90
46676;DHT22;32412;51.478;5.694;2023-02-24T08:37:46;4.90;99.90
46676;DHT22;32412;51.478;5.694;2023-02-24T08:40:23;4.90;99.90
46676;DHT22;32412;51.478;5.694;2023-02-24T08:42:57;4.90;99.90
46676;DHT22;32412;51.478;5.694;2023-02-24T08:45:31;5.00;99.90
46676;DHT22;32412;51.478;5.694;2023-02-24T08:47:58;5.00;99.90
46676;DHT22;32412;51.478;5.694;2023-02-24T08:50:27;5.10;99.90
46676;DHT22;32412;51.478;5.694;2023-02-24T08:52:56;5.20;99.90
46676;DHT22;32412;51.478;5.694;2023-02-24T08:55:23;5.20;99.90
46676;DHT22;32412;51.478;5.694;2023-02-24T08:57:55;5.30;99.90
46676;DHT22;32412;51.478;5.694;2023-02-24T09:00:28;5.30;99.90
46676;DHT22;32412;51.478;5.694;2023-02-24T09:03:16;5.40;99.90
46676;DHT22;32412;51.478;5.694;2023-02-24T09:06:07;5.60;99.90
46676;DHT22;32412;51.478;5.694;2023-02-24T09:08:38;5.60;99.90
46676;DHT22;32412;51.478;5.694;2023-02-24T09:11:08;5.70;99.90
46676;DHT22;32412;51.478;5.694;2023-02-24T09:13:39;5.70;99.90
46676;DHT22;32412;51.478;5.694;2023-02-24T09:16:20;5.80;99.90
46676;DHT22;32412;51.478;5.694;2023-02-24T09:18:51;5.90;99.90
46676;DHT22;32412;51.478;5.694;2023-02-24T09:21:36;6.00;99.90
46676;DHT22;32412;51.478;5.694;2023-02-24T09:24:22;5.90;99.90
46676;DHT22;32412;51.478;5.694;2023-02-24T09:26:54;5.90;99.90
46676;DHT22;32412;51.478;5.694;2023-02-24T09:29:27;5.90;99.90
46676;DHT22;32412;51.478;5.694;2023-02-24T09:32:03;5.90;99.90
46676;DHT22;32412;51.478;5.694;2023-02-24T09:34:34;5.80;99.90
46676;DHT22;32412;51.478;5.694;2023-02-24T09:37:01;5.80;99.90
46676;DHT22;32412;51.478;5.694;2023-02-24T09:39:33;5.70;99.90
46676;DHT22;32412;51.478;5.694;2023-02-24T09:44:54;5.80;99.90
46676;DHT22;32412;51.478;5.694;2023-02-24T09:50:20;5.70;99.90
46676;DHT22;32412;51.478;5.694;2023-02-24T09:52:53;5.70;99.90
46676;DHT22;32412;51.478;5.694;2023-02-24T09:55:39;5.70;99.90
46676;DHT22;32412;51.478;5.694;2023-02-24T09:58:30;5.80;99.90
46676;DHT22;32412;51.478;5.694;2023-02-24T10:07:16;5.70;99.90
46676;DHT22;32412;51.478;5.694;2023-02-24T10:10:24;5.70;99.90
46676;DHT22;32412;51.478;5.694;2023-02-24T10:15:27;5.70;99.90
46676;DHT22;32412;51.478;5.694;2023-02-24T10:21:29;5.70;99.90
46676;DHT22;32412;51.478;5.694;2023-02-24T10:24:43;5.70;99.90
46676;DHT22;32412;51.478;5.694;2023-02-24T10:27:21;5.70;99.90
46676;DHT22;32412;51.478;5.694;2023-02-24T10:30:15;5.80;99.90
46676;DHT22;32412;51.478;5.694;2023-02-24T10:32:55;5.80;99.90
46676;DHT22;32412;51.478;5.694;2023-02-24T10:35:26;5.80;99.90
46676;DHT22;32412;51.478;5.694;2023-02-24T10:38:01;5.90;99.90
46676;DHT22;32412;51.478;5.694;2023-02-24T10:40:43;6.00;99.90
46676;DHT22;32412;51.478;5.694;2023-02-24T10:43:16;6.10;99.90
46676;DHT22;32412;51.478;5.694;2023-02-24T10:45:55;6.10;99.90
46676;DHT22;32412;51.478;5.694;2023-02-24T10:48:32;6.00;99.90
46676;DHT22;32412;51.478;5.694;2023-02-24T10:51:09;6.10;99.90
46676;DHT22;32412;51.478;5.694;2023-02-24T10:53:35;5.90;99.90
46676;DHT22;32412;51.478;5.694;2023-02-24T10:56:12;6.00;99.90
46676;DHT22;32412;51.478;5.694;2023-02-24T10:59:10;6.10;99.90
46676;DHT22;32412;51.478;5.694;2023-02-24T11:02:00;6.10;99.90
46676;DHT22;32412;51.478;5.694;2023-02-24T11:04:36;6.20;99.90
46676;DHT22;32412;51.478;5.694;2023-02-24T11:07:19;6.30;99.90
46676;DHT22;32412;51.478;5.694;2023-02-24T11:10:19;6.30;99.90
46676;DHT22;32412;51.478;5.694;2023-02-24T11:12:52;6.40;99.90
46676;DHT22;32412;51.478;5.694;2023-02-24T11:15:49;6.40;99.90
46676;DHT22;32412;51.478;5.694;2023-02-24T11:18:34;6.40;99.90
46676;DHT22;32412;51.478;5.694;2023-02-24T11:23:39;6.20;99.90
46676;DHT22;32412;51.478;5.694;2023-02-24T11:31:50;6.30;99.90
46676;DHT22;32412;51.478;5.694;2023-02-24T11:37:30;6.30;99.90
46676;DHT22;32412;51.478;5.694;2023-02-24T11:40:04;6.10;99.90
46676;DHT22;32412;51.478;5.694;2023-02-24T11:43:00;6.10;99.90
46676;DHT22;32412;51.478;5.694;2023-02-24T11:45:42;6.00;99.90
46676;DHT22;32412;51.478;5.694;2023-02-24T11:48:28;6.00;99.90
46676;DHT22;32412;51.478;5.694;2023-02-24T11:53:34;5.90;99.90
46676;DHT22;32412;51.478;5.694;2023-02-24T11:56:05;5.80;99.90
46676;DHT22;32412;51.478;5.694;2023-02-24T11:58:53;5.80;99.90
46676;DHT22;32412;51.478;5.694;2023-02-24T12:01:38;5.80;99.90
46676;DHT22;32412;51.478;5.694;2023-02-24T12:04:25;5.80;99.90
46676;DHT22;32412;51.478;5.694;2023-02-24T12:07:21;5.70;99.90
46676;DHT22;32412;51.478;5.694;2023-02-24T12:09:58;5.60;99.90
46676;DHT22;32412;51.478;5.694;2023-02-24T12:12:39;5.60;99.90
46676;DHT22;32412;51.478;5.694;2023-02-24T12:15:30;5.60;99.90
46676;DHT22;32412;51.478;5.694;2023-02-24T12:23:43;5.60;99.90
46676;DHT22;32412;51.478;5.694;2023-02-24T12:26:38;5.70;99.90
46676;DHT22;32412;51.478;5.694;2023-02-24T12:35:46;5.70;99.90
46676;DHT22;32412;51.478;5.694;2023-02-24T12:41:27;5.70;99.90
46676;DHT22;32412;51.478;5.694;2023-02-24T12:46:34;5.70;99.90
46676;DHT22;32412;51.478;5.694;2023-02-24T13:11:54;5.80;99.90
46676;DHT22;32412;51.478;5.694;2023-02-24T13:19:37;5.90;99.90
46676;DHT22;32412;51.478;5.694;2023-02-24T13:24:41;5.80;99.90
46676;DHT22;32412;51.478;5.694;2023-02-24T13:27:20;5.90;99.90
46676;DHT22;32412;51.478;5.694;2023-02-24T13:29:51;5.80;99.90
46676;DHT22;32412;51.478;5.694;2023-02-24T13:32:33;5.80;99.90
46676;DHT22;32412;51.478;5.694;2023-02-24T13:37:48;5.80;99.90
46676;DHT22;32412;51.478;5.694;2023-02-24T13:42:54;5.70;99.90
46676;DHT22;32412;51.478;5.694;2023-02-24T13:45:21;5.70;99.90
46676;DHT22;32412;51.478;5.694;2023-02-24T13:56:06;5.80;99.90
46676;DHT22;32412;51.478;5.694;2023-02-24T13:59:07;5.70;99.90
46676;DHT22;32412;51.478;5.694;2023-02-24T14:01:58;5.70;99.90
46676;DHT22;32412;51.478;5.694;2023-02-24T14:06:53;5.70;99.90
46676;DHT22;32412;51.478;5.694;2023-02-24T14:09:26;5.70;99.90
46676;DHT22;32412;51.478;5.694;2023-02-24T14:11:58;5.70;99.90
46676;DHT22;32412;51.478;5.694;2023-02-24T14:14:27;5.80;99.90
46676;DHT22;32412;51.478;5.694;2023-02-24T14:16:56;6.00;99.90
46676;DHT22;32412;51.478;5.694;2023-02-24T14:19:24;6.10;99.90
46676;DHT22;32412;51.478;5.694;2023-02-24T14:21:56;6.20;99.90
46676;DHT22;32412;51.478;5.694;2023-02-24T14:24:23;6.30;99.90
46676;DHT22;32412;51.478;5.694;2023-02-24T14:26:58;6.30;99.90
46676;DHT22;32412;51.478;5.694;2023-02-24T14:29:30;6.20;99.90
46676;DHT22;32412;51.478;5.694;2023-02-24T14:31:59;6.50;99.90
46676;DHT22;32412;51.478;5.694;2023-02-24T14:34:26;6.60;99.90
46676;DHT22;32412;51.478;5.694;2023-02-24T14:36:56;6.60;99.90
46676;DHT22;32412;51.478;5.694;2023-02-24T14:39:28;6.50;99.90
46676;DHT22;32412;51.478;5.694;2023-02-24T14:42:23;6.50;99.90
46676;DHT22;32412;51.478;5.694;2023-02-24T14:44:55;6.60;99.90
46676;DHT22;32412;51.478;5.694;2023-02-24T14:47:24;6.60;99.90
46676;DHT22;32412;51.478;5.694;2023-02-24T14:52:41;6.60;99.90
46676;DHT22;32412;51.478;5.694;2023-02-24T14:55:35;6.60;99.90
46676;DHT22;32412;51.478;5.694;2023-02-24T15:01:00;7.30;99.90
46676;DHT22;32412;51.478;5.694;2023-02-24T15:03:38;7.70;99.90
46676;DHT22;32412;51.478;5.694;2023-02-24T15:06:15;7.80;99.90
46676;DHT22;32412;51.478;5.694;2023-02-24T15:08:45;7.90;99.90
46676;DHT22;32412;51.478;5.694;2023-02-24T15:13:44;7.90;99.90
46676;DHT22;32412;51.478;5.694;2023-02-24T15:16:26;7.80;99.90
46676;DHT22;32412;51.478;5.694;2023-02-24T15:18:56;7.60;99.90
46676;DHT22;32412;51.478;5.694;2023-02-24T15:24:02;7.30;99.90
46676;DHT22;32412;51.478;5.694;2023-02-24T15:26:31;7.00;99.90
46676;DHT22;32412;51.478;5.694;2023-02-24T15:29:20;6.90;99.90
46676;DHT22;32412;51.478;5.694;2023-02-24T15:31:48;6.80;99.90
46676;DHT22;32412;51.478;5.694;2023-02-24T15:34:28;6.60;99.90
46676;DHT22;32412;51.478;5.694;2023-02-24T15:37:11;6.60;99.90
46676;DHT22;32412;51.478;5.694;2023-02-24T15:39:41;6.50;99.90
46676;DHT22;32412;51.478;5.694;2023-02-24T15:42:25;6.50;99.90
46676;DHT22;32412;51.478;5.694;2023-02-24T15:44:54;6.50;99.90
46676;DHT22;32412;51.478;5.694;2023-02-24T15:47:23;6.60;99.90
46676;DHT22;32412;51.478;5.694;2023-02-24T15:49:49;6.60;99.90
46676;DHT22;32412;51.478;5.694;2023-02-24T15:52:22;6.70;99.90
46676;DHT22;32412;51.478;5.694;2023-02-24T15:54:49;6.70;99.90
46676;DHT22;32412;51.478;5.694;2023-02-24T15:57:16;6.80;99.90
46676;DHT22;32412;51.478;5.694;2023-02-24T15:59:43;7.00;99.90
46676;DHT22;32412;51.478;5.694;2023-02-24T16:02:14;7.00;99.90
46676;DHT22;32412;51.478;5.694;2023-02-24T16:04:41;7.10;99.90
46676;DHT22;32412;51.478;5.694;2023-02-24T16:13:55;7.10;99.90
46676;DHT22;32412;51.478;5.694;2023-02-24T16:16:22;7.40;99.90
46676;DHT22;32412;51.478;5.694;2023-02-24T16:18:49;7.40;99.90
46676;DHT22;32412;51.478;5.694;2023-02-24T16:21:15;7.60;99.90
46676;DHT22;32412;51.478;5.694;2023-02-24T16:23:41;7.80;99.90
46676;DHT22;32412;51.478;5.694;2023-02-24T16:26:19;8.00;99.90
46676;DHT22;32412;51.478;5.694;2023-02-24T16:29:03;7.90;99.90
46676;DHT22;32412;51.478;5.694;2023-02-24T16:31:41;7.50;99.90
46676;DHT22;32412;51.478;5.694;2023-02-24T16:34:07;7.20;99.90
46676;DHT22;32412;51.478;5.694;2023-02-24T16:36:33;6.90;99.90
46676;DHT22;32412;51.478;5.694;2023-02-24T16:38:58;6.60;99.90
46676;DHT22;32412;51.478;5.694;2023-02-24T16:41:25;6.40;99.90
46676;DHT22;32412;51.478;5.694;2023-02-24T16:43:51;6.50;99.90
46676;DHT22;32412;51.478;5.694;2023-02-24T16:46:21;6.40;99.90
46676;DHT22;32412;51.478;5.694;2023-02-24T16:48:51;6.30;99.90
46676;DHT22;32412;51.478;5.694;2023-02-24T16:51:17;6.40;99.90
46676;DHT22;32412;51.478;5.694;2023-02-24T16:53:43;6.30;99.90
46676;DHT22;32412;51.478;5.694;2023-02-24T16:56:09;6.30;99.90
46676;DHT22;32412;51.478;5.694;2023-02-24T16:58:36;6.20;99.90
46676;DHT22;32412;51.478;5.694;2023-02-24T17:01:03;6.10;99.90
46676;DHT22;32412;51.478;5.694;2023-02-24T17:03:42;6.20;99.90
46676;DHT22;32412;51.478;5.694;2023-02-24T17:06:08;6.10;99.90
46676;DHT22;32412;51.478;5.694;2023-02-24T17:08:34;6.20;99.90
46676;DHT22;32412;51.478;5.694;2023-02-24T17:11:00;6.20;99.90
46676;DHT22;32412;51.478;5.694;2023-02-24T17:13:26;6.20;99.90
46676;DHT22;32412;51.478;5.694;2023-02-24T17:15:52;6.20;99.90
46676;DHT22;32412;51.478;5.694;2023-02-24T17:18:25;6.20;99.90
46676;DHT22;32412;51.478;5.694;2023-02-24T17:20:51;6.20;99.90
46676;DHT22;32412;51.478;5.694;2023-02-24T17:23:20;6.20;99.90
46676;DHT22;32412;51.478;5.694;2023-02-24T17:25:50;6.20;99.90
46676;DHT22;32412;51.478;5.694;2023-02-24T17:28:17;6.20;99.90
46676;DHT22;32412;51.478;5.694;2023-02-24T17:30:43;6.20;99.90
46676;DHT22;32412;51.478;5.694;2023-02-24T17:33:08;6.20;99.90
46676;DHT22;32412;51.478;5.694;2023-02-24T17:35:35;6.20;99.90
46676;DHT22;32412;51.478;5.694;2023-02-24T17:38:01;6.20;99.90
46676;DHT22;32412;51.478;5.694;2023-02-24T17:40:27;6.30;99.90
46676;DHT22;32412;51.478;5.694;2023-02-24T17:42:52;6.20;99.90
46676;DHT22;32412;51.478;5.694;2023-02-24T17:45:18;6.20;99.90
46676;DHT22;32412;51.478;5.694;2023-02-24T17:47:44;6.10;99.90
46676;DHT22;32412;51.478;5.694;2023-02-24T17:50:11;6.10;99.90
46676;DHT22;32412;51.478;5.694;2023-02-24T17:52:37;6.00;99.90
46676;DHT22;32412;51.478;5.694;2023-02-24T17:55:04;5.90;99.90
46676;DHT22;32412;51.478;5.694;2023-02-24T17:57:32;5.90;99.90
46676;DHT22;32412;51.478;5.694;2023-02-24T17:59:58;5.70;99.90
46676;DHT22;32412;51.478;5.694;2023-02-24T18:02:24;5.80;99.90
46676;DHT22;32412;51.478;5.694;2023-02-24T18:04:50;5.60;99.90
46676;DHT22;32412;51.478;5.694;2023-02-24T18:07:17;5.70;99.90
46676;DHT22;32412;51.478;5.694;2023-02-24T18:09:42;5.70;99.90
46676;DHT22;32412;51.478;5.694;2023-02-24T18:12:08;5.70;99.90
46676;DHT22;32412;51.478;5.694;2023-02-24T18:14:34;5.60;99.90
46676;DHT22;32412;51.478;5.694;2023-02-24T18:17:00;5.60;99.90
46676;DHT22;32412;51.478;5.694;2023-02-24T18:19:31;5.60;99.90
46676;DHT22;32412;51.478;5.694;2023-02-24T18:22:16;5.50;99.90
46676;DHT22;32412;51.478;5.694;2023-02-24T18:24:45;5.50;99.90
46676;DHT22;32412;51.478;5.694;2023-02-24T18:27:28;5.40;99.90
46676;DHT22;32412;51.478;5.694;2023-02-24T18:30:02;5.30;99.90
46676;DHT22;32412;51.478;5.694;2023-02-24T18:32:28;5.30;99.90
46676;DHT22;32412;51.478;5.694;2023-02-24T18:34:57;5.20;99.90
46676;DHT22;32412;51.478;5.694;2023-02-24T18:37:23;5.20;99.90
46676;DHT22;32412;51.478;5.694;2023-02-24T18:40:02;5.20;99.90
46676;DHT22;32412;51.478;5.694;2023-02-24T18:42:28;5.20;99.90
46676;DHT22;32412;51.478;5.694;2023-02-24T18:45:12;5.20;99.90
46676;DHT22;32412;51.478;5.694;2023-02-24T18:47:41;5.10;99.90
46676;DHT22;32412;51.478;5.694;2023-02-24T18:50:08;5.10;99.90
46676;DHT22;32412;51.478;5.694;2023-02-24T18:52:37;5.00;99.90
46676;DHT22;32412;51.478;5.694;2023-02-24T18:55:03;5.10;99.90
46676;DHT22;32412;51.478;5.694;2023-02-24T18:57:31;5.20;99.90